Terminal Aerodrome Forecast
Issued by NWS Jackson, MS

Current Version | Previous Version | Text Only | Print | Product List | Glossary On
Versions: 1 2 3 4 5 6 7 8 9 10 11 12 13 14
000
FTUS44 KJAN 042339
TAFGLH
TAF
KGLH 042339Z 0500/0524 VRB03KT P6SM FEW050 SCT070
     FM051100 VRB03KT 5SM BR HZ SKC
     FM051330 13005KT P6SM FEW050 SCT070=

USA.gov is the U.S. government's official web portal to all federal, state and local government web resources and services.